createdAt,value
2023-02-15T00:00:11.599Z,102762.97
2023-02-15T00:02:39.537Z,102759.44
2023-02-15T00:05:08.044Z,102771.41
2023-02-15T00:07:35.255Z,102761.72
2023-02-15T00:10:02.742Z,102765.34
2023-02-15T00:12:29.765Z,102771.28
2023-02-15T00:14:56.833Z,102772.75
2023-02-15T00:17:23.720Z,102758.59
2023-02-15T00:19:50.842Z,102765.38
2023-02-15T00:22:17.753Z,102761.53
2023-02-15T00:24:44.651Z,102758.13
2023-02-15T00:27:11.719Z,102760.25
2023-02-15T00:29:39.787Z,102740.63
2023-02-15T00:32:07.232Z,102736.09
2023-02-15T00:34:34.239Z,102745.53
2023-02-15T00:37:01.236Z,102737.38
2023-02-15T00:39:30.159Z,102732.97
2023-02-15T00:41:57.132Z,102732.47
2023-02-15T00:44:24.061Z,102733.91
2023-02-15T00:46:50.906Z,102725.75
2023-02-15T00:49:17.767Z,102735.16
2023-02-15T00:51:44.789Z,102740.91
2023-02-15T00:54:11.627Z,102729.09
2023-02-15T00:56:38.897Z,102733.19
2023-02-15T00:59:05.822Z,102733.63
2023-02-15T01:01:33.650Z,102745.84
2023-02-15T01:04:00.685Z,102734.84
2023-02-15T01:06:30.109Z,102745.75
2023-02-15T01:08:57.028Z,102733.91
2023-02-15T01:11:25.865Z,102735.19
2023-02-15T01:13:58.488Z,102732.31
2023-02-15T01:16:28.874Z,102729.97
2023-02-15T01:18:56.536Z,102729.34
2023-02-15T01:21:26.298Z,102728.22
2023-02-15T01:23:53.653Z,102726.16
2023-02-15T01:26:20.535Z,102719.50
2023-02-15T01:28:47.943Z,102714.66
2023-02-15T01:31:19.302Z,102708.97
2023-02-15T01:33:47.795Z,102714.88
2023-02-15T01:36:15.501Z,102706.69
2023-02-15T01:38:42.707Z,102705.00
2023-02-15T01:41:23.832Z,102704.63
2023-02-15T01:43:55.657Z,102699.75
2023-02-15T01:46:46.441Z,102696.56
2023-02-15T01:49:18.583Z,102689.19
2023-02-15T01:51:47.524Z,102687.81
2023-02-15T01:54:30.237Z,102690.91
2023-02-15T01:57:04.856Z,102682.59
2023-02-15T01:59:34.502Z,102683.03
2023-02-15T02:02:03.129Z,102675.00
2023-02-15T02:04:43.010Z,102675.53
2023-02-15T02:07:14.005Z,102665.97
2023-02-15T02:09:41.238Z,102670.56
2023-02-15T02:12:09.333Z,102666.25
2023-02-15T02:14:37.629Z,102669.19
2023-02-15T02:17:19.052Z,102661.84
2023-02-15T02:20:27.423Z,102659.50
2023-02-15T02:23:07.776Z,102653.94
2023-02-15T02:26:35.763Z,102652.56
2023-02-15T02:29:41.552Z,102645.34
2023-02-15T02:32:23.544Z,102654.84
2023-02-15T02:35:02.322Z,102652.47
2023-02-15T02:38:17.773Z,102646.63
2023-02-15T02:41:11.789Z,102651.66
2023-02-15T02:43:59.869Z,102645.97
2023-02-15T02:46:38.786Z,102649.03
2023-02-15T02:49:05.915Z,102635.56
2023-02-15T02:51:32.915Z,102628.88
2023-02-15T02:54:06.480Z,102636.69
2023-02-15T02:56:42.113Z,102629.16
2023-02-15T02:59:21.487Z,102619.03
2023-02-15T03:02:13.982Z,102621.81
2023-02-15T03:04:48.148Z,102615.44
2023-02-15T03:07:23.601Z,102620.84
2023-02-15T03:09:52.732Z,102618.78
2023-02-15T03:12:32.223Z,102623.66
2023-02-15T03:15:16.266Z,102624.22
2023-02-15T03:17:54.777Z,102619.78
2023-02-15T03:20:35.353Z,102606.16
2023-02-15T03:23:16.568Z,102615.06
2023-02-15T03:25:54.207Z,102625.22
2023-02-15T03:28:36.704Z,102618.41
2023-02-15T03:31:07.035Z,102625.78
2023-02-15T03:33:37.249Z,102613.78
2023-02-15T03:36:28.247Z,102610.72
2023-02-15T03:39:19.458Z,102608.38
2023-02-15T03:42:14.182Z,102614.91
2023-02-15T03:44:56.926Z,102602.94
2023-02-15T03:47:31.347Z,102599.88
2023-02-15T03:50:36.155Z,102605.59
2023-02-15T03:53:07.732Z,102605.88
2023-02-15T03:55:36.711Z,102600.03
2023-02-15T03:58:23.322Z,102592.38
2023-02-15T04:01:18.533Z,102597.38
2023-02-15T04:04:02.626Z,102596.25
2023-02-15T04:06:29.815Z,102586.81
2023-02-15T04:09:15.058Z,102584.16
2023-02-15T04:11:42.093Z,102583.63
2023-02-15T04:14:27.932Z,102594.03
2023-02-15T04:16:55.114Z,102586.66
2023-02-15T04:19:40.740Z,102582.34
2023-02-15T04:22:26.156Z,102568.75
2023-02-15T04:25:11.808Z,102578.59
2023-02-15T04:27:41.040Z,102579.56
2023-02-15T04:30:10.147Z,102568.31
2023-02-15T04:32:37.477Z,102573.72
2023-02-15T04:35:06.675Z,102575.53
2023-02-15T04:37:34.065Z,102570.41
2023-02-15T04:40:00.924Z,102563.44
2023-02-15T04:42:28.518Z,102555.53
2023-02-15T04:44:55.824Z,102561.09
2023-02-15T04:47:23.222Z,102566.50
2023-02-15T04:49:50.607Z,102556.91
2023-02-15T04:52:18.739Z,102553.72
2023-02-15T04:54:46.179Z,102552.88
2023-02-15T04:57:13.740Z,102547.84
2023-02-15T04:59:40.784Z,102539.38
2023-02-15T05:02:08.109Z,102533.25
2023-02-15T05:04:35.580Z,102533.41
2023-02-15T05:07:02.655Z,102534.38
2023-02-15T05:09:29.993Z,102528.41
2023-02-15T05:11:57.347Z,102526.88
2023-02-15T05:14:24.233Z,102527.84
2023-02-15T05:16:51.224Z,102514.78
2023-02-15T05:19:18.237Z,102519.38
2023-02-15T05:21:45.188Z,102521.03
2023-02-15T05:24:30.831Z,102505.88
2023-02-15T05:27:16.494Z,102519.50
2023-02-15T05:29:43.511Z,102513.53
2023-02-15T05:32:11.526Z,102502.41
2023-02-15T05:34:38.495Z,102504.78
2023-02-15T05:37:05.583Z,102515.06
2023-02-15T05:39:32.578Z,102520.06
2023-02-15T05:42:02.688Z,102517.84
2023-02-15T05:44:29.581Z,102515.63
2023-02-15T05:46:56.751Z,102514.25
2023-02-15T05:49:23.648Z,102507.63
2023-02-15T05:51:50.540Z,102510.53
2023-02-15T05:54:17.444Z,102500.69
2023-02-15T05:56:44.334Z,102506.38
2023-02-15T05:59:11.239Z,102507.50
2023-02-15T06:01:38.298Z,102502.63
2023-02-15T06:04:05.335Z,102508.59
2023-02-15T06:06:32.440Z,102514.28
2023-02-15T06:08:59.464Z,102508.88
2023-02-15T06:11:26.409Z,102507.63
2023-02-15T06:13:53.400Z,102509.16
2023-02-15T06:16:20.277Z,102512.47
2023-02-15T06:18:47.290Z,102504.28
2023-02-15T06:21:14.276Z,102498.16
2023-02-15T06:23:41.531Z,102496.22
2023-02-15T06:26:08.854Z,102502.59
2023-02-15T06:28:36.498Z,102503.16
2023-02-15T06:31:03.940Z,102501.91
2023-02-15T06:33:35.082Z,102495.66
2023-02-15T06:36:03.025Z,102495.50
2023-02-15T06:38:30.412Z,102490.22
2023-02-15T06:40:57.938Z,102486.47
2023-02-15T06:43:25.671Z,102495.91
2023-02-15T06:45:52.976Z,102485.34
2023-02-15T06:48:19.987Z,102502.28
2023-02-15T06:50:47.205Z,102490.88
2023-02-15T06:53:14.406Z,102489.78
2023-02-15T06:55:41.984Z,102493.00
2023-02-15T06:58:09.073Z,102491.19
2023-02-15T07:00:36.080Z,102490.75
2023-02-15T07:03:03.845Z,102490.06
2023-02-15T07:05:35.195Z,102486.28
2023-02-15T07:08:02.367Z,102489.78
2023-02-15T07:10:29.715Z,102487.81
2023-02-15T07:12:57.086Z,102487.53
2023-02-15T07:15:24.269Z,102487.09
2023-02-15T07:17:51.756Z,102479.19
2023-02-15T07:20:22.636Z,102473.06
2023-02-15T07:22:50.541Z,102479.72
2023-02-15T07:25:18.290Z,102482.22
2023-02-15T07:27:45.903Z,102473.44
2023-02-15T07:30:17.275Z,102471.50
2023-02-15T07:33:05.455Z,102464.94
2023-02-15T07:35:33.570Z,102466.63
2023-02-15T07:38:01.493Z,102460.19
2023-02-15T07:40:28.492Z,102460.19
2023-02-15T07:42:59.953Z,102448.94
2023-02-15T07:45:27.802Z,102455.47
2023-02-15T07:47:55.032Z,102446.81
2023-02-15T07:50:21.967Z,102446.91
2023-02-15T07:52:48.907Z,102446.75
2023-02-15T07:55:16.216Z,102435.06
2023-02-15T07:57:45.745Z,102432.66
2023-02-15T08:00:14.911Z,102420.25
2023-02-15T08:02:42.701Z,102429.84
2023-02-15T08:05:09.746Z,102432.50
2023-02-15T08:07:36.779Z,102423.44
2023-02-15T08:10:03.817Z,102430.78
2023-02-15T08:12:30.780Z,102433.41
2023-02-15T08:14:57.709Z,102445.66
2023-02-15T08:17:24.717Z,102442.72
2023-02-15T08:19:51.738Z,102439.91
2023-02-15T08:22:18.628Z,102431.84
2023-02-15T08:24:45.774Z,102443.50
2023-02-15T08:27:13.012Z,102433.31
2023-02-15T08:29:42.142Z,102439.00
2023-02-15T08:32:13.671Z,102437.72
2023-02-15T08:34:42.986Z,102436.59
2023-02-15T08:37:10.244Z,102426.00
2023-02-15T08:39:37.801Z,102421.00
2023-02-15T08:42:05.191Z,102425.63
2023-02-15T08:44:32.113Z,102415.41
2023-02-15T08:47:04.405Z,102413.44
2023-02-15T08:49:31.836Z,102410.50
2023-02-15T08:51:58.703Z,102405.81
2023-02-15T08:54:25.862Z,102409.88
2023-02-15T08:56:52.972Z,102400.50
2023-02-15T08:59:25.070Z,102394.81
2023-02-15T09:01:53.979Z,102396.38
2023-02-15T09:04:23.504Z,102388.72
2023-02-15T09:06:51.544Z,102388.63
2023-02-15T09:09:19.985Z,102387.66
2023-02-15T09:11:53.982Z,102389.41
2023-02-15T09:14:25.639Z,102386.81
2023-02-15T09:16:54.045Z,102382.53
2023-02-15T09:19:23.928Z,102381.06
2023-02-15T09:21:51.180Z,102375.13
2023-02-15T09:24:18.526Z,102388.13
2023-02-15T09:26:48.355Z,102389.81
2023-02-15T09:29:16.923Z,102386.69
2023-02-15T09:31:50.905Z,102385.06
2023-02-15T09:34:22.426Z,102389.03
2023-02-15T09:36:50.259Z,102390.22
2023-02-15T09:39:24.384Z,102396.38
2023-02-15T09:42:26.215Z,102386.59
2023-02-15T09:45:30.766Z,102384.94
2023-02-15T09:48:20.424Z,102382.81
2023-02-15T09:51:10.140Z,102389.28
2023-02-15T09:54:11.802Z,102371.72
2023-02-15T09:56:53.274Z,102383.00
2023-02-15T09:59:52.428Z,102378.69
2023-02-15T10:02:29.301Z,102375.53
2023-02-15T10:05:44.268Z,102380.34
2023-02-15T10:09:00.599Z,102378.31
2023-02-15T10:11:40.300Z,102366.66
2023-02-15T10:14:22.749Z,102367.56
2023-02-15T10:17:46.414Z,102371.66
2023-02-15T10:20:41.122Z,102352.59
2023-02-15T10:23:26.427Z,102366.06
2023-02-15T10:26:33.687Z,102357.00
2023-02-15T10:29:32.751Z,102350.66
2023-02-15T10:32:03.334Z,102351.94
2023-02-15T10:34:54.086Z,102348.13
2023-02-15T10:37:54.943Z,102335.75
2023-02-15T10:40:41.208Z,102337.59
2023-02-15T10:43:30.148Z,102328.06
2023-02-15T10:46:31.037Z,102327.50
2023-02-15T10:49:45.707Z,102330.50
2023-02-15T10:52:46.669Z,102333.53
2023-02-15T10:55:40.055Z,102325.78
2023-02-15T10:58:16.402Z,102313.38
2023-02-15T11:01:01.459Z,102313.69
2023-02-15T11:04:07.232Z,102306.28
2023-02-15T11:06:40.111Z,102307.84
2023-02-15T11:09:17.764Z,102304.25
2023-02-15T11:11:49.351Z,102305.13
2023-02-15T11:14:36.161Z,102295.72
2023-02-15T11:17:17.111Z,102277.91
2023-02-15T11:20:27.179Z,102278.63
2023-02-15T11:22:55.211Z,102270.84
2023-02-15T11:25:29.193Z,102270.34
2023-02-15T11:27:57.287Z,102271.63
2023-02-15T11:30:30.352Z,102255.84
2023-02-15T11:33:02.790Z,102243.66
2023-02-15T11:35:50.427Z,102241.47
2023-02-15T11:38:27.221Z,102241.72
2023-02-15T11:41:03.213Z,102232.66
2023-02-15T11:43:38.951Z,102239.25
2023-02-15T11:46:06.827Z,102226.66
2023-02-15T11:48:34.441Z,102212.13
2023-02-15T11:51:04.236Z,102213.44
2023-02-15T11:53:37.268Z,102206.81
2023-02-15T11:56:06.830Z,102207.19
2023-02-15T11:59:01.582Z,102206.88
2023-02-15T12:01:38.075Z,102201.03
2023-02-15T12:04:23.821Z,102202.31
2023-02-15T12:07:39.020Z,102195.53
2023-02-15T12:10:22.109Z,102197.38
2023-02-15T12:12:49.065Z,102202.88
2023-02-15T12:15:32.019Z,102207.19
2023-02-15T12:17:59.303Z,102190.66
2023-02-15T12:20:32.610Z,102198.81
2023-02-15T12:23:09.769Z,102189.41
2023-02-15T12:25:55.166Z,102184.22
2023-02-15T12:28:38.855Z,102184.63
2023-02-15T12:31:38.305Z,102186.16
2023-02-15T12:34:14.129Z,102177.50
2023-02-15T12:36:51.666Z,102177.50
2023-02-15T12:39:32.525Z,102169.31
2023-02-15T12:42:09.414Z,102162.63
2023-02-15T12:44:38.209Z,102149.22
2023-02-15T12:47:17.553Z,102157.53
2023-02-15T12:49:48.044Z,102146.59
2023-02-15T12:52:21.153Z,102140.91
2023-02-15T12:54:52.337Z,102146.81
2023-02-15T12:57:30.655Z,102141.78
2023-02-15T13:00:04.749Z,102126.25
2023-02-15T13:02:57.675Z,102121.75
2023-02-15T13:05:39.943Z,102123.16
2023-02-15T13:08:32.541Z,102116.16
2023-02-15T13:11:01.157Z,102108.03
2023-02-15T13:13:32.191Z,102093.72
2023-02-15T13:16:15.136Z,102104.06
2023-02-15T13:18:47.729Z,102092.97
2023-02-15T13:21:20.105Z,102089.78
2023-02-15T13:23:55.421Z,102089.50
2023-02-15T13:26:24.962Z,102082.00
2023-02-15T13:28:58.572Z,102074.28
2023-02-15T13:31:29.428Z,102075.03
2023-02-15T13:34:21.959Z,102072.88
2023-02-15T13:37:14.593Z,102056.97
2023-02-15T13:39:59.390Z,102065.25
2023-02-15T13:42:46.934Z,102063.97
2023-02-15T13:45:41.094Z,102061.91
2023-02-15T13:48:36.902Z,102063.94
2023-02-15T13:51:46.385Z,102051.44
2023-02-15T13:54:40.058Z,102053.53
2023-02-15T13:57:40.842Z,102057.38
2023-02-15T14:00:35.360Z,102048.50
2023-02-15T14:03:51.880Z,102054.06
2023-02-15T14:07:03.238Z,102041.13
2023-02-15T14:10:13.057Z,102053.16
2023-02-15T14:13:29.079Z,102051.03
2023-02-15T14:16:36.950Z,102053.63
2023-02-15T14:19:17.917Z,102058.53
2023-02-15T14:22:30.554Z,102067.25
2023-02-15T14:25:37.159Z,102066.50
2023-02-15T14:28:27.502Z,102062.19
2023-02-15T14:30:55.507Z,102053.88
2023-02-15T14:33:57.278Z,102049.63
2023-02-15T14:36:26.588Z,102056.78
2023-02-15T14:39:38.099Z,102042.28
2023-02-15T14:42:37.461Z,102048.22
2023-02-15T14:45:38.096Z,102054.91
2023-02-15T14:48:42.855Z,102039.03
2023-02-15T14:51:10.588Z,102042.50
2023-02-15T14:53:40.726Z,102032.94
2023-02-15T14:56:10.795Z,102044.31
2023-02-15T14:58:39.090Z,102040.09
2023-02-15T15:01:11.744Z,102025.56
2023-02-15T15:03:51.126Z,102034.84
2023-02-15T15:06:31.592Z,102032.13
2023-02-15T15:09:13.561Z,102025.63
2023-02-15T15:11:49.741Z,102026.72
2023-02-15T15:14:35.206Z,102035.13
2023-02-15T15:17:05.222Z,102029.44
2023-02-15T15:19:52.433Z,102020.13
2023-02-15T15:22:22.700Z,102028.16
2023-02-15T15:24:53.298Z,102022.06
2023-02-15T15:27:44.442Z,102017.22
2023-02-15T15:30:14.145Z,102020.47
2023-02-15T15:32:56.261Z,102022.13
2023-02-15T15:35:46.195Z,102022.63
2023-02-15T15:38:52.260Z,102019.59
2023-02-15T15:41:43.031Z,102018.03
2023-02-15T15:45:24.240Z,102034.31
2023-02-15T15:48:07.085Z,102025.28
2023-02-15T15:50:35.819Z,102030.34
2023-02-15T15:53:04.553Z,102037.75
2023-02-15T15:55:34.954Z,102030.03
2023-02-15T15:58:07.821Z,102029.41
2023-02-15T16:01:08.216Z,102032.16
2023-02-15T16:03:35.249Z,102034.78
2023-02-15T16:06:03.763Z,102027.91
2023-02-15T16:08:40.806Z,102019.00
2023-02-15T16:11:23.333Z,102011.72
2023-02-15T16:13:50.891Z,102010.03
2023-02-15T16:16:26.382Z,102006.84
2023-02-15T16:18:53.512Z,102016.88
2023-02-15T16:21:35.379Z,102009.69
2023-02-15T16:24:36.079Z,102015.38
2023-02-15T16:27:19.190Z,102016.91
2023-02-15T16:29:46.176Z,102005.19
2023-02-15T16:32:27.811Z,102004.16
2023-02-15T16:35:03.700Z,102003.72
2023-02-15T16:37:35.567Z,102001.22
2023-02-15T16:40:02.799Z,102008.41
2023-02-15T16:42:29.932Z,102001.34
2023-02-15T16:45:13.536Z,102004.31
2023-02-15T16:47:45.900Z,102011.47
2023-02-15T16:50:25.657Z,102008.47
2023-02-15T16:52:54.187Z,102017.25
2023-02-15T16:55:35.121Z,102012.97
2023-02-15T16:58:05.457Z,102000.41
2023-02-15T17:00:37.995Z,102003.34
2023-02-15T17:03:14.284Z,102015.16
2023-02-15T17:05:43.847Z,102018.28
2023-02-15T17:08:34.137Z,102022.84
2023-02-15T17:11:20.671Z,102017.31
2023-02-15T17:14:11.844Z,102015.03
2023-02-15T17:16:54.458Z,102013.16
2023-02-15T17:19:32.352Z,102028.97
2023-02-15T17:22:07.728Z,102033.50
2023-02-15T17:24:43.163Z,102022.75
2023-02-15T17:27:25.571Z,102013.28
2023-02-15T17:29:59.152Z,102010.13
2023-02-15T17:32:29.813Z,102004.94
2023-02-15T17:35:18.291Z,102004.50
2023-02-15T17:38:21.303Z,102012.25
2023-02-15T17:40:48.371Z,102014.66
2023-02-15T17:43:15.388Z,102019.94
2023-02-15T17:45:49.532Z,102009.00
2023-02-15T17:48:34.602Z,102003.97
2023-02-15T17:51:03.860Z,102000.84
2023-02-15T17:53:31.501Z,102012.41
2023-02-15T17:55:58.489Z,102010.72
2023-02-15T17:58:25.968Z,102007.56
2023-02-15T18:01:16.649Z,102006.25
2023-02-15T18:04:09.568Z,102031.03
2023-02-15T18:07:00.758Z,102009.19
2023-02-15T18:09:46.081Z,102021.22
2023-02-15T18:12:22.812Z,102024.81
2023-02-15T18:14:51.162Z,102015.09
2023-02-15T18:17:18.743Z,102014.41
2023-02-15T18:19:46.855Z,102001.00
2023-02-15T18:22:17.158Z,102009.56
2023-02-15T18:24:44.134Z,102002.06
2023-02-15T18:27:13.496Z,102000.16
2023-02-15T18:29:40.916Z,101994.13
2023-02-15T18:32:15.973Z,101996.53
2023-02-15T18:34:44.762Z,102003.81
2023-02-15T18:37:18.025Z,101990.59
2023-02-15T18:39:55.492Z,101996.66
2023-02-15T18:42:34.316Z,101993.44
2023-02-15T18:45:28.652Z,101996.84
2023-02-15T18:47:56.106Z,101994.66
2023-02-15T18:50:36.332Z,102001.34
2023-02-15T18:53:06.575Z,101994.25
2023-02-15T18:55:35.291Z,101989.66
2023-02-15T18:58:02.279Z,101991.41
2023-02-15T19:00:34.951Z,101990.31
2023-02-15T19:03:02.818Z,101977.28
2023-02-15T19:05:31.963Z,101989.13
2023-02-15T19:08:01.090Z,101989.00
2023-02-15T19:10:30.816Z,101980.28
2023-02-15T19:12:58.284Z,101982.31
2023-02-15T19:15:30.260Z,101986.31
2023-02-15T19:17:57.239Z,101975.75
2023-02-15T19:20:30.030Z,101974.28
2023-02-15T19:23:00.397Z,101980.97
2023-02-15T19:25:34.154Z,101982.50
2023-02-15T19:28:05.564Z,101975.91
2023-02-15T19:30:32.830Z,101967.47
2023-02-15T19:33:00.327Z,101957.53
2023-02-15T19:35:33.016Z,101955.44
2023-02-15T19:38:04.075Z,101955.13
2023-02-15T19:40:33.895Z,101962.81
2023-02-15T19:43:02.178Z,101954.56
2023-02-15T19:45:31.961Z,101951.63
2023-02-15T19:48:01.468Z,101954.97
2023-02-15T19:50:34.599Z,101948.38
2023-02-15T19:53:03.037Z,101947.72
2023-02-15T19:55:34.961Z,101945.25
2023-02-15T19:58:02.709Z,101937.00
2023-02-15T20:00:33.498Z,101934.69
2023-02-15T20:03:01.011Z,101933.34
2023-02-15T20:05:30.858Z,101933.72
2023-02-15T20:07:58.437Z,101930.59
2023-02-15T20:10:30.995Z,101941.38
2023-02-15T20:12:59.073Z,101931.28
2023-02-15T20:15:28.785Z,101917.72
2023-02-15T20:17:57.744Z,101920.06
2023-02-15T20:20:43.161Z,101914.13
2023-02-15T20:23:22.990Z,101919.13
2023-02-15T20:25:50.718Z,101914.53
2023-02-15T20:28:22.732Z,101905.09
2023-02-15T20:30:50.479Z,101918.88
2023-02-15T20:33:18.818Z,101899.81
2023-02-15T20:35:46.953Z,101915.91
2023-02-15T20:38:28.145Z,101906.84
2023-02-15T20:41:15.035Z,101908.84
2023-02-15T20:43:41.990Z,101901.75
2023-02-15T20:46:09.348Z,101910.91
2023-02-15T20:48:36.660Z,101906.78
2023-02-15T20:51:04.333Z,101914.75
2023-02-15T20:53:31.403Z,101911.44
2023-02-15T20:55:58.417Z,101911.78
2023-02-15T20:58:28.324Z,101906.66
2023-02-15T21:00:57.906Z,101910.13
2023-02-15T21:03:30.655Z,101907.81
2023-02-15T21:05:58.980Z,101910.78
2023-02-15T21:08:26.714Z,101914.28
2023-02-15T21:10:54.345Z,101910.97
2023-02-15T21:13:35.380Z,101921.75
2023-02-15T21:16:03.516Z,101910.81
2023-02-15T21:18:34.367Z,101917.28
2023-02-15T21:21:05.535Z,101914.47
2023-02-15T21:23:39.532Z,101918.28
2023-02-15T21:26:14.115Z,101913.47
2023-02-15T21:28:41.285Z,101914.81
2023-02-15T21:31:23.689Z,101914.81
2023-02-15T21:33:51.128Z,101914.16
2023-02-15T21:36:25.544Z,101909.84
2023-02-15T21:38:53.775Z,101903.25
2023-02-15T21:41:42.479Z,101904.06
2023-02-15T21:44:38.108Z,101908.72
2023-02-15T21:47:24.935Z,101903.94
2023-02-15T21:49:52.830Z,101910.38
2023-02-15T21:52:23.741Z,101915.84
2023-02-15T21:54:50.847Z,101903.28
2023-02-15T21:57:19.482Z,101908.59
2023-02-15T21:59:47.577Z,101905.94
2023-02-15T22:02:31.314Z,101911.59
2023-02-15T22:04:58.883Z,101911.09
2023-02-15T22:07:25.820Z,101905.97
2023-02-15T22:09:54.294Z,101912.25
2023-02-15T22:12:22.042Z,101920.53
2023-02-15T22:14:53.755Z,101920.72
2023-02-15T22:17:24.877Z,101915.75
2023-02-15T22:19:52.907Z,101917.91
2023-02-15T22:22:19.793Z,101920.22
2023-02-15T22:24:46.754Z,101911.78
2023-02-15T22:27:27.670Z,101916.41
2023-02-15T22:29:55.559Z,101904.00
2023-02-15T22:32:26.257Z,101903.00
2023-02-15T22:34:54.585Z,101902.81
2023-02-15T22:37:21.433Z,101909.13
2023-02-15T22:39:48.577Z,101895.03
2023-02-15T22:42:27.429Z,101895.22
2023-02-15T22:44:56.946Z,101901.00
2023-02-15T22:47:28.167Z,101895.69
2023-02-15T22:49:55.733Z,101894.22
2023-02-15T22:52:24.728Z,101903.47
2023-02-15T22:54:51.605Z,101903.81
2023-02-15T22:57:30.035Z,101901.66
2023-02-15T22:59:57.875Z,101888.75
2023-02-15T23:02:24.892Z,101895.53
2023-02-15T23:04:53.514Z,101884.63
2023-02-15T23:07:21.448Z,101878.31
2023-02-15T23:09:48.410Z,101879.50
2023-02-15T23:12:53.980Z,101880.00
2023-02-15T23:15:20.840Z,101875.22
2023-02-15T23:17:47.811Z,101867.94
2023-02-15T23:20:15.537Z,101877.72
2023-02-15T23:22:43.956Z,101892.09
2023-02-15T23:25:12.541Z,101890.63
2023-02-15T23:27:57.506Z,101881.16
2023-02-15T23:30:24.922Z,101889.78
2023-02-15T23:32:54.511Z,101890.94
2023-02-15T23:35:22.820Z,101891.44
2023-02-15T23:37:49.872Z,101892.75
2023-02-15T23:40:38.385Z,101892.94
2023-02-15T23:43:09.527Z,101891.28
2023-02-15T23:45:39.117Z,101889.47
2023-02-15T23:48:39.017Z,101892.09
2023-02-15T23:51:06.767Z,101887.97
2023-02-15T23:53:34.051Z,101888.97
2023-02-15T23:56:01.452Z,101892.94
2023-02-15T23:58:36.280Z,101899.88
